220950Z 33002KT CAVOK M15/M17 Q1029 RWY 14 ICE 0-10 PCT FCT 0.65=

220830Z 2209/2218 34004KT CAVOK=

Aktuell METAR/TAF ESNU/UME

Källa: Luftfartsverket (aro.lfv.se)